sensor_id;sensor_type;location;lat;lon;timestamp;pressure;altitude;pressure_sealevel;temperature;humidity
58973;BME280;44750;52.040;7.472;2022-12-07T00:00:22;100834.53;;;5.19;0.00
58973;BME280;44750;52.040;7.472;2022-12-07T00:05:22;100827.81;;;5.13;0.00
58973;BME280;44750;52.040;7.472;2022-12-07T00:10:22;100844.06;;;5.23;0.00
58973;BME280;44750;52.040;7.472;2022-12-07T00:15:23;100834.84;;;5.14;0.00
58973;BME280;44750;52.040;7.472;2022-12-07T00:20:23;100836.81;;;5.12;0.00
58973;BME280;44750;52.040;7.472;2022-12-07T00:25:23;100837.78;;;5.11;0.00
58973;BME280;44750;52.040;7.472;2022-12-07T00:30:23;100832.41;;;5.11;0.00
58973;BME280;44750;52.040;7.472;2022-12-07T00:35:23;100829.22;;;5.06;0.00
58973;BME280;44750;52.040;7.472;2022-12-07T00:40:24;100818.72;;;5.03;0.00
58973;BME280;44750;52.040;7.472;2022-12-07T00:45:24;100827.63;;;5.03;0.00
58973;BME280;44750;52.040;7.472;2022-12-07T00:50:26;100819.94;;;4.99;0.00
58973;BME280;44750;52.040;7.472;2022-12-07T00:55:26;100805.16;;;4.93;0.00
58973;BME280;44750;52.040;7.472;2022-12-07T01:00:26;100815.75;;;4.95;0.00
58973;BME280;44750;52.040;7.472;2022-12-07T01:05:26;100802.56;;;4.92;0.00
58973;BME280;44750;52.040;7.472;2022-12-07T01:10:27;100787.06;;;4.84;0.00
58973;BME280;44750;52.040;7.472;2022-12-07T01:15:27;100777.84;;;4.75;0.00
58973;BME280;44750;52.040;7.472;2022-12-07T01:20:28;100765.97;;;4.66;0.00
58973;BME280;44750;52.040;7.472;2022-12-07T01:25:28;100766.44;;;4.60;0.00
58973;BME280;44750;52.040;7.472;2022-12-07T01:30:28;100771.69;;;4.62;0.00
58973;BME280;44750;52.040;7.472;2022-12-07T01:35:28;100763.56;;;4.50;0.00
58973;BME280;44750;52.040;7.472;2022-12-07T01:40:28;100752.44;;;4.44;0.00
58973;BME280;44750;52.040;7.472;2022-12-07T01:45:39;100750.94;;;4.40;0.00
58973;BME280;44750;52.040;7.472;2022-12-07T01:50:40;100741.97;;;4.28;0.00
58973;BME280;44750;52.040;7.472;2022-12-07T01:55:44;100739.53;;;4.25;0.00
58973;BME280;44750;52.040;7.472;2022-12-07T02:00:46;100721.44;;;4.15;0.00
58973;BME280;44750;52.040;7.472;2022-12-07T02:05:47;100707.47;;;3.99;0.00
58973;BME280;44750;52.040;7.472;2022-12-07T02:10:48;100710.03;;;4.00;0.00
58973;BME280;44750;52.040;7.472;2022-12-07T02:31:18;100699.78;;;3.81;0.00
58973;BME280;44750;52.040;7.472;2022-12-07T02:36:29;100694.00;;;3.75;0.00
58973;BME280;44750;52.040;7.472;2022-12-07T02:41:34;100679.69;;;3.63;0.00
58973;BME280;44750;52.040;7.472;2022-12-07T02:46:39;100670.16;;;3.59;0.00
58973;BME280;44750;52.040;7.472;2022-12-07T02:51:43;100676.47;;;3.58;0.00
58973;BME280;44750;52.040;7.472;2022-12-07T02:56:51;100688.31;;;3.66;0.00
58973;BME280;44750;52.040;7.472;2022-12-07T03:02:33;100684.81;;;3.66;0.00
58973;BME280;44750;52.040;7.472;2022-12-07T03:13:39;100684.56;;;3.69;0.00
58973;BME280;44750;52.040;7.472;2022-12-07T03:18:52;100666.59;;;3.58;0.00
58973;BME280;44750;52.040;7.472;2022-12-07T03:23:58;100650.88;;;3.54;0.00
58973;BME280;44750;52.040;7.472;2022-12-07T03:29:04;100652.59;;;3.55;0.00
58973;BME280;44750;52.040;7.472;2022-12-07T03:34:23;100651.72;;;3.54;0.00
58973;BME280;44750;52.040;7.472;2022-12-07T03:44:29;100657.19;;;3.53;0.00
58973;BME280;44750;52.040;7.472;2022-12-07T03:49:42;100656.84;;;3.57;0.00
58973;BME280;44750;52.040;7.472;2022-12-07T03:54:49;100667.25;;;3.62;0.00
58973;BME280;44750;52.040;7.472;2022-12-07T03:59:54;100668.09;;;3.62;0.00
58973;BME280;44750;52.040;7.472;2022-12-07T04:04:56;100657.19;;;3.53;0.00
58973;BME280;44750;52.040;7.472;2022-12-07T04:09:56;100669.09;;;3.61;0.00
58973;BME280;44750;52.040;7.472;2022-12-07T04:14:56;100654.53;;;3.53;0.00
58973;BME280;44750;52.040;7.472;2022-12-07T04:19:57;100660.00;;;3.51;0.00
58973;BME280;44750;52.040;7.472;2022-12-07T04:24:57;100660.63;;;3.55;0.00
58973;BME280;44750;52.040;7.472;2022-12-07T04:29:57;100655.28;;;3.55;0.00
58973;BME280;44750;52.040;7.472;2022-12-07T04:34:57;100650.34;;;3.48;0.00
58973;BME280;44750;52.040;7.472;2022-12-07T04:39:57;100642.03;;;3.40;0.00
58973;BME280;44750;52.040;7.472;2022-12-07T04:44:58;100640.72;;;3.33;0.00
58973;BME280;44750;52.040;7.472;2022-12-07T04:49:58;100651.00;;;3.39;0.00
58973;BME280;44750;52.040;7.472;2022-12-07T04:54:58;100650.34;;;3.35;0.00
58973;BME280;44750;52.040;7.472;2022-12-07T04:59:58;100650.34;;;3.35;0.00
58973;BME280;44750;52.040;7.472;2022-12-07T05:04:59;100651.97;;;3.38;0.00
58973;BME280;44750;52.040;7.472;2022-12-07T05:09:59;100662.91;;;3.48;0.00
58973;BME280;44750;52.040;7.472;2022-12-07T05:15:00;100662.13;;;3.46;0.00
58973;BME280;44750;52.040;7.472;2022-12-07T05:20:00;100661.91;;;3.49;0.00
58973;BME280;44750;52.040;7.472;2022-12-07T05:25:01;100656.56;;;3.49;0.00
58973;BME280;44750;52.040;7.472;2022-12-07T05:30:01;100662.66;;;3.51;0.00
58973;BME280;44750;52.040;7.472;2022-12-07T05:35:01;100664.38;;;3.52;0.00
58973;BME280;44750;52.040;7.472;2022-12-07T05:40:02;100658.91;;;3.54;0.00
58973;BME280;44750;52.040;7.472;2022-12-07T05:45:03;100650.34;;;3.48;0.00
58973;BME280;44750;52.040;7.472;2022-12-07T05:50:04;100653.16;;;3.47;0.00
58973;BME280;44750;52.040;7.472;2022-12-07T05:55:05;100631.94;;;3.44;0.00
58973;BME280;44750;52.040;7.472;2022-12-07T06:00:06;100632.34;;;3.50;0.00
58973;BME280;44750;52.040;7.472;2022-12-07T06:05:07;100641.38;;;3.49;0.00
58973;BME280;44750;52.040;7.472;2022-12-07T06:10:07;100637.63;;;3.52;0.00
58973;BME280;44750;52.040;7.472;2022-12-07T06:15:08;100625.50;;;3.46;0.00
58973;BME280;44750;52.040;7.472;2022-12-07T06:20:09;100631.09;;;3.43;0.00
58973;BME280;44750;52.040;7.472;2022-12-07T06:25:09;100626.81;;;3.41;0.00
58973;BME280;44750;52.040;7.472;2022-12-07T06:30:10;100615.69;;;3.34;0.00
58973;BME280;44750;52.040;7.472;2022-12-07T06:35:10;100599.44;;;3.24;0.00
58973;BME280;44750;52.040;7.472;2022-12-07T06:40:10;100595.06;;;3.23;0.00
58973;BME280;44750;52.040;7.472;2022-12-07T06:45:10;100600.50;;;3.22;0.00
58973;BME280;44750;52.040;7.472;2022-12-07T06:50:11;100605.22;;;3.18;0.00
58973;BME280;44750;52.040;7.472;2022-12-07T06:55:12;100585.00;;;3.14;0.00
58973;BME280;44750;52.040;7.472;2022-12-07T07:00:12;100580.00;;;3.09;0.00
58973;BME280;44750;52.040;7.472;2022-12-07T07:05:13;100602.88;;;3.13;0.00
58973;BME280;44750;52.040;7.472;2022-12-07T07:10:13;100608.13;;;3.15;0.00
58973;BME280;44750;52.040;7.472;2022-12-07T07:15:13;100624.59;;;3.22;0.00
58973;BME280;44750;52.040;7.472;2022-12-07T07:20:14;100623.41;;;3.26;0.00
58973;BME280;44750;52.040;7.472;2022-12-07T07:25:14;100621.69;;;3.25;0.00
58973;BME280;44750;52.040;7.472;2022-12-07T07:30:15;100642.88;;;3.41;0.00
58973;BME280;44750;52.040;7.472;2022-12-07T07:35:15;100621.47;;;3.28;0.00
58973;BME280;44750;52.040;7.472;2022-12-07T07:40:16;100626.50;;;3.32;0.00
58973;BME280;44750;52.040;7.472;2022-12-07T07:45:17;100619.56;;;3.30;0.00
58973;BME280;44750;52.040;7.472;2022-12-07T07:50:17;100625.84;;;3.29;0.00
58973;BME280;44750;52.040;7.472;2022-12-07T07:55:18;100616.56;;;3.22;0.00
58973;BME280;44750;52.040;7.472;2022-12-07T08:00:23;100605.88;;;3.22;0.00
58973;BME280;44750;52.040;7.472;2022-12-07T08:05:24;100603.72;;;3.14;0.00
58973;BME280;44750;52.040;7.472;2022-12-07T08:10:25;100601.16;;;3.12;0.00
58973;BME280;44750;52.040;7.472;2022-12-07T08:15:28;100601.91;;;3.14;0.00
58973;BME280;44750;52.040;7.472;2022-12-07T08:20:30;100583.81;;;3.05;0.00
58973;BME280;44750;52.040;7.472;2022-12-07T08:25:32;100585.53;;;3.06;0.00
58973;BME280;44750;52.040;7.472;2022-12-07T08:30:32;100650.16;;;3.39;0.00
58973;BME280;44750;52.040;7.472;2022-12-07T08:35:33;100661.13;;;3.60;0.00
58973;BME280;44750;52.040;7.472;2022-12-07T08:40:34;100657.19;;;3.65;0.00
58973;BME280;44750;52.040;7.472;2022-12-07T08:45:34;100666.78;;;3.81;0.00
58973;BME280;44750;52.040;7.472;2022-12-07T08:50:36;100669.25;;;3.84;0.00
58973;BME280;44750;52.040;7.472;2022-12-07T08:55:37;100667.00;;;3.91;0.00
58973;BME280;44750;52.040;7.472;2022-12-07T09:00:37;100626.56;;;3.70;0.00
58973;BME280;44750;52.040;7.472;2022-12-07T09:05:38;100627.94;;;3.75;0.00
58973;BME280;44750;52.040;7.472;2022-12-07T09:10:38;100625.66;;;3.82;0.00
58973;BME280;44750;52.040;7.472;2022-12-07T09:15:39;100657.09;;;4.04;0.00
58973;BME280;44750;52.040;7.472;2022-12-07T09:20:40;100644.97;;;3.98;0.00
58973;BME280;44750;52.040;7.472;2022-12-07T09:25:47;100649.06;;;4.04;0.00
58973;BME280;44750;52.040;7.472;2022-12-07T09:30:48;100668.81;;;4.14;0.00
58973;BME280;44750;52.040;7.472;2022-12-07T09:35:50;100636.50;;;4.05;0.00
58973;BME280;44750;52.040;7.472;2022-12-07T09:40:54;100666.00;;;4.29;0.00
58973;BME280;44750;52.040;7.472;2022-12-07T09:45:57;100563.97;;;3.83;0.00
58973;BME280;44750;52.040;7.472;2022-12-07T09:50:59;100615.59;;;4.34;0.00
58973;BME280;44750;52.040;7.472;2022-12-07T09:56:01;100621.44;;;4.63;0.00
58973;BME280;44750;52.040;7.472;2022-12-07T10:01:20;100558.72;;;4.42;0.00
58973;BME280;44750;52.040;7.472;2022-12-07T10:06:21;100537.69;;;4.48;0.00
58973;BME280;44750;52.040;7.472;2022-12-07T10:11:21;100591.66;;;5.13;0.00
58973;BME280;44750;52.040;7.472;2022-12-07T10:21:26;100511.53;;;5.09;0.00
58973;BME280;44750;52.040;7.472;2022-12-07T10:26:32;100502.34;;;5.34;0.00
58973;BME280;44750;52.040;7.472;2022-12-07T10:31:38;100407.41;;;4.91;3.76
58973;BME280;44750;52.040;7.472;2022-12-07T10:36:38;100371.69;;;4.91;6.12
58973;BME280;44750;52.040;7.472;2022-12-07T10:42:10;100307.03;;;4.61;7.99
58973;BME280;44750;52.040;7.472;2022-12-07T10:52:34;100344.97;;;5.33;10.04
58973;BME280;44750;52.040;7.472;2022-12-07T11:08:05;100247.09;;;5.37;14.94
58973;BME280;44750;52.040;7.472;2022-12-07T11:13:20;100289.06;;;5.80;15.25
58973;BME280;44750;52.040;7.472;2022-12-07T11:18:34;100241.97;;;5.76;17.99
58973;BME280;44750;52.040;7.472;2022-12-07T11:23:48;100221.94;;;5.80;20.37
58973;BME280;44750;52.040;7.472;2022-12-07T11:29:21;100181.91;;;5.77;23.35
58973;BME280;44750;52.040;7.472;2022-12-07T11:39:46;100128.88;;;5.69;28.80
58973;BME280;44750;52.040;7.472;2022-12-07T11:45:24;100103.72;;;5.71;30.50
58973;BME280;44750;52.040;7.472;2022-12-07T11:50:36;100081.81;;;5.75;32.36
58973;BME280;44750;52.040;7.472;2022-12-07T12:06:33;100017.09;;;5.78;38.71
58973;BME280;44750;52.040;7.472;2022-12-07T12:22:18;99960.41;;;5.81;46.01
58973;BME280;44750;52.040;7.472;2022-12-07T12:27:31;99931.44;;;5.75;49.32
58973;BME280;44750;52.040;7.472;2022-12-07T12:32:44;99927.50;;;5.89;50.91
58973;BME280;44750;52.040;7.472;2022-12-07T12:37:46;99893.84;;;5.75;54.39
58973;BME280;44750;52.040;7.472;2022-12-07T12:42:55;99873.75;;;5.60;55.73
58973;BME280;44750;52.040;7.472;2022-12-07T12:48:35;99865.56;;;5.51;56.65
58973;BME280;44750;52.040;7.472;2022-12-07T12:53:36;99886.63;;;5.66;56.34
58973;BME280;44750;52.040;7.472;2022-12-07T12:58:38;99870.94;;;5.81;55.67
58973;BME280;44750;52.040;7.472;2022-12-07T13:03:52;99835.75;;;5.64;57.96
58973;BME280;44750;52.040;7.472;2022-12-07T13:08:54;99830.25;;;5.56;59.06
58973;BME280;44750;52.040;7.472;2022-12-07T13:24:43;99820.03;;;5.89;60.56
58973;BME280;44750;52.040;7.472;2022-12-07T13:29:43;99791.91;;;5.83;62.33
58973;BME280;44750;52.040;7.472;2022-12-07T13:34:44;99778.91;;;5.89;63.57
58973;BME280;44750;52.040;7.472;2022-12-07T13:39:52;99763.66;;;5.79;65.51
58973;BME280;44750;52.040;7.472;2022-12-07T13:44:55;99755.28;;;5.82;66.70
58973;BME280;44750;52.040;7.472;2022-12-07T13:49:56;99731.31;;;5.71;67.85
58973;BME280;44750;52.040;7.472;2022-12-07T14:00:16;99721.56;;;5.70;70.10
58973;BME280;44750;52.040;7.472;2022-12-07T14:05:31;99720.88;;;5.68;70.81
58973;BME280;44750;52.040;7.472;2022-12-07T14:10:34;99723.97;;;5.73;70.97
58973;BME280;44750;52.040;7.472;2022-12-07T14:15:35;99707.31;;;5.69;71.34
58973;BME280;44750;52.040;7.472;2022-12-07T14:20:40;99712.09;;;5.66;71.99
58973;BME280;44750;52.040;7.472;2022-12-07T14:25:49;99682.50;;;5.38;75.18
58973;BME280;44750;52.040;7.472;2022-12-07T14:30:50;99679.03;;;5.28;77.52
58973;BME280;44750;52.040;7.472;2022-12-07T14:35:51;99667.00;;;5.22;79.66
58973;BME280;44750;52.040;7.472;2022-12-07T14:40:53;99648.09;;;5.14;80.98
58973;BME280;44750;52.040;7.472;2022-12-07T14:45:53;99645.72;;;5.01;82.60
58973;BME280;44750;52.040;7.472;2022-12-07T14:50:54;99637.41;;;4.94;83.62
58973;BME280;44750;52.040;7.472;2022-12-07T14:55:54;99633.88;;;4.94;84.29
58973;BME280;44750;52.040;7.472;2022-12-07T15:00:54;99626.66;;;4.94;84.18
58973;BME280;44750;52.040;7.472;2022-12-07T15:05:55;99635.47;;;4.87;84.40
58973;BME280;44750;52.040;7.472;2022-12-07T15:10:55;99646.31;;;4.85;84.11
58973;BME280;44750;52.040;7.472;2022-12-07T15:15:55;99644.47;;;4.85;82.85
58973;BME280;44750;52.040;7.472;2022-12-07T15:20:55;99650.00;;;4.84;81.85
58973;BME280;44750;52.040;7.472;2022-12-07T15:25:58;99653.81;;;4.81;80.96
58973;BME280;44750;52.040;7.472;2022-12-07T15:30:59;99661.13;;;4.79;79.65
58973;BME280;44750;52.040;7.472;2022-12-07T15:35:59;99667.47;;;4.78;78.34
58973;BME280;44750;52.040;7.472;2022-12-07T15:40:59;99684.56;;;4.77;76.21
58973;BME280;44750;52.040;7.472;2022-12-07T15:45:59;99692.19;;;4.72;74.38
58973;BME280;44750;52.040;7.472;2022-12-07T15:51:07;99701.50;;;4.78;71.23
58973;BME280;44750;52.040;7.472;2022-12-07T15:56:08;99720.97;;;4.90;68.42
58973;BME280;44750;52.040;7.472;2022-12-07T16:01:12;99736.19;;;4.89;66.57
58973;BME280;44750;52.040;7.472;2022-12-07T16:06:16;99738.19;;;4.87;64.05
58973;BME280;44750;52.040;7.472;2022-12-07T16:11:16;99750.75;;;4.87;61.79
58973;BME280;44750;52.040;7.472;2022-12-07T16:16:18;99759.66;;;4.87;59.53
58973;BME280;44750;52.040;7.472;2022-12-07T16:21:19;99776.56;;;4.88;57.37
58973;BME280;44750;52.040;7.472;2022-12-07T16:26:21;99774.47;;;4.81;55.95
58973;BME280;44750;52.040;7.472;2022-12-07T16:31:23;99788.13;;;4.78;53.99
58973;BME280;44750;52.040;7.472;2022-12-07T16:36:24;99800.56;;;4.79;51.70
58973;BME280;44750;52.040;7.472;2022-12-07T16:41:24;99799.72;;;4.79;50.12
58973;BME280;44750;52.040;7.472;2022-12-07T16:46:25;99806.19;;;4.76;48.76
58973;BME280;44750;52.040;7.472;2022-12-07T16:51:25;99813.81;;;4.71;47.17
58973;BME280;44750;52.040;7.472;2022-12-07T16:56:25;99823.81;;;4.69;45.75
58973;BME280;44750;52.040;7.472;2022-12-07T17:01:25;99813.91;;;4.60;44.51
58973;BME280;44750;52.040;7.472;2022-12-07T17:06:28;99827.88;;;4.63;43.00
58973;BME280;44750;52.040;7.472;2022-12-07T17:11:29;99842.84;;;4.66;41.29
58973;BME280;44750;52.040;7.472;2022-12-07T17:16:30;99838.03;;;4.60;40.39
58973;BME280;44750;52.040;7.472;2022-12-07T17:21:31;99848.50;;;4.63;38.47
58973;BME280;44750;52.040;7.472;2022-12-07T17:26:31;99850.59;;;4.59;37.36
58973;BME280;44750;52.040;7.472;2022-12-07T17:31:33;99866.53;;;4.61;36.27
58973;BME280;44750;52.040;7.472;2022-12-07T17:36:37;99871.06;;;4.60;35.20
58973;BME280;44750;52.040;7.472;2022-12-07T17:41:39;99873.88;;;4.59;34.56
58973;BME280;44750;52.040;7.472;2022-12-07T17:46:40;99880.50;;;4.55;34.50
58973;BME280;44750;52.040;7.472;2022-12-07T17:51:40;99875.38;;;4.51;33.69
58973;BME280;44750;52.040;7.472;2022-12-07T17:56:40;99882.00;;;4.47;33.38
58973;BME280;44750;52.040;7.472;2022-12-07T18:01:41;99891.00;;;4.46;32.99
58973;BME280;44750;52.040;7.472;2022-12-07T18:06:42;99880.84;;;4.40;32.47
58973;BME280;44750;52.040;7.472;2022-12-07T18:11:43;99872.34;;;4.35;32.26
58973;BME280;44750;52.040;7.472;2022-12-07T18:16:44;99864.59;;;4.32;32.49
58973;BME280;44750;52.040;7.472;2022-12-07T18:21:44;99870.06;;;4.30;33.07
58973;BME280;44750;52.040;7.472;2022-12-07T18:26:45;99871.19;;;4.28;33.26
58973;BME280;44750;52.040;7.472;2022-12-07T18:31:46;99879.94;;;4.30;33.73
58973;BME280;44750;52.040;7.472;2022-12-07T18:36:48;99865.81;;;4.28;34.49
58973;BME280;44750;52.040;7.472;2022-12-07T18:41:48;99858.19;;;4.23;35.37
58973;BME280;44750;52.040;7.472;2022-12-07T18:46:48;99865.97;;;4.26;35.80
58973;BME280;44750;52.040;7.472;2022-12-07T18:51:48;99852.25;;;4.19;36.40
58973;BME280;44750;52.040;7.472;2022-12-07T18:56:49;99852.00;;;4.23;37.12
58973;BME280;44750;52.040;7.472;2022-12-07T19:01:52;99849.00;;;4.16;38.10
58973;BME280;44750;52.040;7.472;2022-12-07T19:06:52;99847.91;;;4.18;38.19
58973;BME280;44750;52.040;7.472;2022-12-07T19:11:52;99823.13;;;4.05;38.83
58973;BME280;44750;52.040;7.472;2022-12-07T19:16:56;99830.78;;;4.10;38.99
58973;BME280;44750;52.040;7.472;2022-12-07T19:21:56;99825.56;;;4.08;38.72
58973;BME280;44750;52.040;7.472;2022-12-07T19:26:57;99816.63;;;3.98;38.84
58973;BME280;44750;52.040;7.472;2022-12-07T19:31:58;99834.13;;;4.02;38.24
58973;BME280;44750;52.040;7.472;2022-12-07T19:36:58;99842.28;;;4.00;37.97
58973;BME280;44750;52.040;7.472;2022-12-07T19:41:59;99827.59;;;3.95;37.23
58973;BME280;44750;52.040;7.472;2022-12-07T19:47:01;99834.22;;;3.91;36.98
58973;BME280;44750;52.040;7.472;2022-12-07T19:52:05;99834.31;;;3.89;35.85
58973;BME280;44750;52.040;7.472;2022-12-07T19:57:06;99835.97;;;3.80;35.07
58973;BME280;44750;52.040;7.472;2022-12-07T20:02:11;99838.38;;;3.83;33.84
58973;BME280;44750;52.040;7.472;2022-12-07T20:07:11;99833.16;;;3.82;33.04
58973;BME280;44750;52.040;7.472;2022-12-07T20:12:11;99834.25;;;3.79;32.16
58973;BME280;44750;52.040;7.472;2022-12-07T20:17:11;99815.06;;;3.74;31.75
58973;BME280;44750;52.040;7.472;2022-12-07T20:22:11;99810.00;;;3.71;31.29
58973;BME280;44750;52.040;7.472;2022-12-07T20:27:12;99813.44;;;3.62;30.84
58973;BME280;44750;52.040;7.472;2022-12-07T20:32:12;99817.38;;;3.58;30.16
58973;BME280;44750;52.040;7.472;2022-12-07T20:37:12;99813.50;;;3.50;29.22
58973;BME280;44750;52.040;7.472;2022-12-07T20:42:12;99807.81;;;3.44;28.93
58973;BME280;44750;52.040;7.472;2022-12-07T20:47:12;99809.19;;;3.38;27.66
58973;BME280;44750;52.040;7.472;2022-12-07T20:52:13;99812.84;;;3.37;26.24
58973;BME280;44750;52.040;7.472;2022-12-07T20:57:13;99823.09;;;3.32;25.57
58973;BME280;44750;52.040;7.472;2022-12-07T21:02:13;99824.56;;;3.25;24.86
58973;BME280;44750;52.040;7.472;2022-12-07T21:07:13;99837.22;;;3.23;23.16
58973;BME280;44750;52.040;7.472;2022-12-07T21:12:14;99847.19;;;3.21;21.70
58973;BME280;44750;52.040;7.472;2022-12-07T21:17:14;99850.38;;;3.14;20.65
58973;BME280;44750;52.040;7.472;2022-12-07T21:22:14;99864.22;;;3.20;19.18
58973;BME280;44750;52.040;7.472;2022-12-07T21:27:14;99854.03;;;3.13;18.19
58973;BME280;44750;52.040;7.472;2022-12-07T21:32:14;99875.16;;;3.16;16.14
58973;BME280;44750;52.040;7.472;2022-12-07T21:37:15;99883.06;;;3.18;14.73
58973;BME280;44750;52.040;7.472;2022-12-07T21:42:15;99903.34;;;3.21;13.67
58973;BME280;44750;52.040;7.472;2022-12-07T21:47:15;99904.81;;;3.25;12.21
58973;BME280;44750;52.040;7.472;2022-12-07T21:52:15;99902.25;;;3.23;11.53
58973;BME280;44750;52.040;7.472;2022-12-07T21:57:15;99912.34;;;3.20;11.28
58973;BME280;44750;52.040;7.472;2022-12-07T22:02:16;99932.53;;;3.24;10.01
58973;BME280;44750;52.040;7.472;2022-12-07T22:07:16;99931.81;;;3.22;8.99
58973;BME280;44750;52.040;7.472;2022-12-07T22:12:16;99942.50;;;3.22;8.01
58973;BME280;44750;52.040;7.472;2022-12-07T22:17:16;99939.84;;;3.22;7.14
58973;BME280;44750;52.040;7.472;2022-12-07T22:22:16;99940.81;;;3.21;6.10
58973;BME280;44750;52.040;7.472;2022-12-07T22:27:17;99945.88;;;3.24;5.40
58973;BME280;44750;52.040;7.472;2022-12-07T22:32:17;99960.00;;;3.26;4.47
58973;BME280;44750;52.040;7.472;2022-12-07T22:37:18;99946.16;;;3.21;4.31
58973;BME280;44750;52.040;7.472;2022-12-07T22:42:18;99954.91;;;3.23;3.88
58973;BME280;44750;52.040;7.472;2022-12-07T22:47:19;99949.78;;;3.20;3.33
58973;BME280;44750;52.040;7.472;2022-12-07T22:52:19;99956.59;;;3.24;2.42
58973;BME280;44750;52.040;7.472;2022-12-07T22:57:20;99948.09;;;3.18;2.22
58973;BME280;44750;52.040;7.472;2022-12-07T23:02:20;99957.81;;;3.20;1.64
58973;BME280;44750;52.040;7.472;2022-12-07T23:07:20;99963.66;;;3.25;1.17
58973;BME280;44750;52.040;7.472;2022-12-07T23:12:20;99970.31;;;3.30;0.77
58973;BME280;44750;52.040;7.472;2022-12-07T23:17:20;99955.63;;;3.25;1.21
58973;BME280;44750;52.040;7.472;2022-12-07T23:22:21;99958.91;;;3.17;1.58
58973;BME280;44750;52.040;7.472;2022-12-07T23:27:23;99954.44;;;3.17;1.72
58973;BME280;44750;52.040;7.472;2022-12-07T23:32:23;99948.59;;;3.12;1.93
58973;BME280;44750;52.040;7.472;2022-12-07T23:37:23;99937.44;;;3.07;2.06
58973;BME280;44750;52.040;7.472;2022-12-07T23:42:24;99940.09;;;3.07;1.62
58973;BME280;44750;52.040;7.472;2022-12-07T23:47:24;99926.03;;;2.94;1.88
58973;BME280;44750;52.040;7.472;2022-12-07T23:52:24;99939.63;;;3.02;0.67
58973;BME280;44750;52.040;7.472;2022-12-07T23:57:24;99934.41;;;3.00;0.00
